createdAt,value
2019-02-05T00:01:52.282Z,100148.18
2019-02-05T00:04:58.200Z,100142.34
2019-02-05T00:08:05.022Z,100138.17
2019-02-05T00:11:10.944Z,100149.04
2019-02-05T00:14:16.659Z,100146.67
2019-02-05T00:17:22.415Z,100152.41
2019-02-05T00:20:29.235Z,100150.50
2019-02-05T00:23:35.138Z,100152.42
2019-02-05T00:26:41.267Z,100156.20
2019-02-05T00:29:47.047Z,100160.38
2019-02-05T00:32:52.827Z,100161.34
2019-02-05T00:35:58.622Z,100161.18
2019-02-05T00:39:06.659Z,100163.78
2019-02-05T00:42:12.933Z,100155.05
2019-02-05T00:45:19.043Z,100157.51
2019-02-05T00:48:24.938Z,100161.84
2019-02-05T00:51:30.733Z,100156.10
2019-02-05T00:54:36.566Z,100160.95
2019-02-05T00:57:42.536Z,100161.95
2019-02-05T01:00:48.423Z,100165.04
2019-02-05T01:03:54.182Z,100173.09
2019-02-05T01:07:00.190Z,100172.00
2019-02-05T01:10:07.480Z,100171.56
2019-02-05T01:13:13.391Z,100169.83
2019-02-05T01:16:19.286Z,100166.02
2019-02-05T01:19:25.059Z,100160.58
2019-02-05T01:22:30.946Z,100155.66
2019-02-05T01:25:36.805Z,100152.55
2019-02-05T01:28:42.669Z,100150.27
2019-02-05T01:31:48.457Z,100156.10
2019-02-05T01:34:54.400Z,100161.22
2019-02-05T01:38:00.174Z,100161.27
2019-02-05T01:41:06.032Z,100164.97
2019-02-05T01:44:12.016Z,100156.92
2019-02-05T01:47:17.833Z,100154.98
2019-02-05T01:50:25.813Z,100164.53
2019-02-05T01:53:32.619Z,100166.69
2019-02-05T01:56:40.898Z,100165.25
2019-02-05T01:59:45.862Z,100167.02
2019-02-05T02:02:52.196Z,100175.37
2019-02-05T02:05:58.098Z,100183.47
2019-02-05T02:09:04.882Z,100170.97
2019-02-05T02:12:11.685Z,100175.22
2019-02-05T02:15:17.757Z,100172.76
2019-02-05T02:18:23.586Z,100175.76
2019-02-05T02:21:29.461Z,100175.37
2019-02-05T02:24:35.333Z,100179.37
2019-02-05T02:27:41.330Z,100178.86
2019-02-05T02:30:47.190Z,100176.05
2019-02-05T02:33:53.386Z,100174.39
2019-02-05T02:36:59.184Z,100171.02
2019-02-05T02:40:06.088Z,100171.14
2019-02-05T02:43:11.898Z,100164.05
2019-02-05T02:46:17.685Z,100167.72
2019-02-05T02:49:23.467Z,100163.31
2019-02-05T02:52:29.248Z,100169.63
2019-02-05T02:55:35.278Z,100164.96
2019-02-05T02:58:41.094Z,100165.98
2019-02-05T03:01:46.893Z,100163.13
2019-02-05T03:04:53.652Z,100161.73
2019-02-05T03:08:00.445Z,100166.98
2019-02-05T03:11:06.646Z,100182.61
2019-02-05T03:14:13.293Z,100176.30
2019-02-05T03:17:19.054Z,100177.09
2019-02-05T03:20:24.846Z,100173.09
2019-02-05T03:23:31.030Z,100180.10
2019-02-05T03:26:37.092Z,100177.05
2019-02-05T03:29:42.950Z,100179.83
2019-02-05T03:32:49.665Z,100170.71
2019-02-05T03:35:55.449Z,100185.45
2019-02-05T03:39:01.243Z,100188.06
2019-02-05T03:42:08.674Z,100191.48
2019-02-05T03:45:14.637Z,100188.59
2019-02-05T03:48:20.619Z,100193.73
2019-02-05T03:52:09.541Z,100187.27
2019-02-05T03:55:49.125Z,100188.33
2019-02-05T03:59:23.082Z,100184.80
2019-02-05T04:02:51.278Z,100193.30
2019-02-05T04:06:26.550Z,100187.55
2019-02-05T04:10:17.286Z,100198.84
2019-02-05T04:14:05.309Z,100193.15
2019-02-05T04:17:48.525Z,100191.55
2019-02-05T04:21:53.117Z,100197.30
2019-02-05T04:25:42.570Z,100200.09
2019-02-05T04:29:23.498Z,100204.31
2019-02-05T04:32:54.197Z,100203.53
2019-02-05T04:36:35.512Z,100198.22
2019-02-05T04:40:15.189Z,100200.44
2019-02-05T04:43:53.093Z,100205.17
2019-02-05T04:47:42.450Z,100201.83
2019-02-05T04:51:25.257Z,100207.66
2019-02-05T04:55:06.210Z,100203.61
2019-02-05T04:59:08.160Z,100210.38
2019-02-05T05:02:42.079Z,100211.59
2019-02-05T05:06:19.993Z,100214.01
2019-02-05T05:09:52.680Z,100216.27
2019-02-05T05:12:58.847Z,100217.23
2019-02-05T05:16:04.967Z,100223.74
2019-02-05T05:19:11.235Z,100220.50
2019-02-05T05:22:18.081Z,100218.48
2019-02-05T05:25:24.448Z,100234.59
2019-02-05T05:28:30.437Z,100233.81
2019-02-05T05:31:36.414Z,100233.28
2019-02-05T05:34:42.420Z,100236.23
2019-02-05T05:37:48.249Z,100240.61
2019-02-05T05:40:54.032Z,100240.25
2019-02-05T05:43:59.799Z,100243.52
2019-02-05T05:47:05.992Z,100253.70
2019-02-05T05:50:14.282Z,100255.38
2019-02-05T05:53:21.061Z,100255.17
2019-02-05T05:56:26.851Z,100260.42
2019-02-05T05:59:32.613Z,100267.63
2019-02-05T06:02:39.922Z,100266.87
2019-02-05T06:05:46.079Z,100265.75
2019-02-05T06:08:52.502Z,100270.58
2019-02-05T06:11:58.501Z,100274.83
2019-02-05T06:15:04.987Z,100276.64
2019-02-05T06:18:10.989Z,100281.45
2019-02-05T06:21:16.820Z,100281.59
2019-02-05T06:24:22.704Z,100292.95
2019-02-05T06:27:28.642Z,100294.83
2019-02-05T06:30:34.510Z,100290.02
2019-02-05T06:33:40.392Z,100290.78
2019-02-05T06:36:46.181Z,100291.78
2019-02-05T06:39:52.019Z,100296.28
2019-02-05T06:42:57.887Z,100296.47
2019-02-05T06:46:03.790Z,100307.64
2019-02-05T06:49:09.890Z,100306.14
2019-02-05T06:52:15.663Z,100303.52
2019-02-05T06:55:21.597Z,100308.27
2019-02-05T06:58:27.372Z,100304.34
2019-02-05T07:01:33.757Z,100308.35
2019-02-05T07:04:39.524Z,100310.11
2019-02-05T07:07:45.415Z,100309.78
2019-02-05T07:10:51.641Z,100307.25
2019-02-05T07:13:58.244Z,100311.41
2019-02-05T07:17:04.357Z,100310.25
2019-02-05T07:20:11.161Z,100309.20
2019-02-05T07:23:17.096Z,100308.52
2019-02-05T07:26:23.007Z,100304.70
2019-02-05T07:29:28.951Z,100302.52
2019-02-05T07:32:34.911Z,100300.61
2019-02-05T07:35:40.792Z,100301.61
2019-02-05T07:38:46.587Z,100307.16
2019-02-05T07:41:52.480Z,100311.05
2019-02-05T07:44:58.345Z,100313.27
2019-02-05T07:48:04.424Z,100319.98
2019-02-05T07:51:10.202Z,100315.82
2019-02-05T07:54:15.971Z,100317.27
2019-02-05T07:57:21.835Z,100316.34
2019-02-05T08:00:28.850Z,100320.46
2019-02-05T08:03:34.759Z,100320.46
2019-02-05T08:06:40.652Z,100305.67
2019-02-05T08:09:46.622Z,100305.67
2019-02-05T08:12:52.555Z,100309.80
2019-02-05T08:15:58.419Z,100311.91
2019-02-05T08:19:04.502Z,100300.41
2019-02-05T08:22:10.340Z,100294.95
2019-02-05T08:25:16.554Z,100294.95
2019-02-05T08:28:22.449Z,100296.89
2019-02-05T08:31:28.274Z,100283.94
2019-02-05T08:34:34.079Z,100289.69
2019-02-05T08:37:39.881Z,100296.79
2019-02-05T08:40:48.145Z,100292.81
2019-02-05T08:43:54.270Z,100292.81
2019-02-05T08:47:00.150Z,100291.16
2019-02-05T08:50:07.881Z,100293.48
2019-02-05T08:53:15.837Z,100293.48
2019-02-05T08:56:21.644Z,100288.70
2019-02-05T08:59:27.481Z,100288.70
2019-02-05T09:02:33.606Z,100288.20
2019-02-05T09:05:40.116Z,100284.58
2019-02-05T09:08:46.235Z,100291.83
2019-02-05T09:11:52.118Z,100298.52
2019-02-05T09:14:58.310Z,100286.38
2019-02-05T09:18:04.493Z,100276.73
2019-02-05T09:21:10.301Z,100281.59
2019-02-05T09:24:16.545Z,100274.88
2019-02-05T09:27:22.406Z,100276.20
2019-02-05T09:30:30.205Z,100264.92
2019-02-05T09:33:37.079Z,100264.59
2019-02-05T09:36:42.867Z,100263.68
2019-02-05T09:39:48.630Z,100256.03
2019-02-05T09:42:54.512Z,100258.73
2019-02-05T09:46:00.443Z,100251.45
2019-02-05T09:49:06.427Z,100257.83
2019-02-05T09:52:12.196Z,100256.70
2019-02-05T09:55:18.361Z,100255.55
2019-02-05T09:58:24.219Z,100249.59
2019-02-05T10:01:30.213Z,100237.73
2019-02-05T10:04:36.014Z,100238.02
2019-02-05T10:07:41.887Z,100219.10
2019-02-05T10:10:47.685Z,100219.80
2019-02-05T10:13:53.647Z,100211.88
2019-02-05T10:16:59.467Z,100210.55
2019-02-05T10:20:06.501Z,100204.25
2019-02-05T10:23:12.700Z,100201.16
2019-02-05T10:26:19.416Z,100198.44
2019-02-05T10:29:25.147Z,100194.28
2019-02-05T10:32:31.207Z,100189.69
2019-02-05T10:35:37.133Z,100182.13
2019-02-05T10:38:44.016Z,100187.91
2019-02-05T10:41:49.738Z,100182.50
2019-02-05T10:44:55.584Z,100178.23
2019-02-05T10:48:01.473Z,100182.80
2019-02-05T10:51:07.465Z,100170.98
2019-02-05T10:54:13.231Z,100173.64
2019-02-05T10:57:19.031Z,100170.52
2019-02-05T11:00:27.409Z,100174.73
2019-02-05T11:03:33.122Z,100170.55
2019-02-05T11:06:38.858Z,100165.71
2019-02-05T11:09:44.575Z,100158.20
2019-02-05T11:12:50.294Z,100163.52
2019-02-05T11:15:56.095Z,100154.41
2019-02-05T11:19:01.835Z,100153.02
2019-02-05T11:22:07.774Z,100148.59
2019-02-05T11:25:13.888Z,100140.45
2019-02-05T11:28:20.855Z,100141.81
2019-02-05T11:34:50.420Z,100142.05
2019-02-05T11:37:57.247Z,100136.73
2019-02-05T11:41:03.083Z,100142.84
2019-02-05T11:44:08.830Z,100135.60
2019-02-05T11:47:14.764Z,100130.05
2019-02-05T11:50:20.692Z,100121.17
2019-02-05T11:53:26.920Z,100115.64
2019-02-05T11:56:32.748Z,100106.56
2019-02-05T11:59:38.459Z,100101.41
2019-02-05T12:02:44.634Z,100106.71
2019-02-05T12:05:50.371Z,100095.73
2019-02-05T12:08:56.177Z,100097.13
2019-02-05T12:12:02.360Z,100094.45
2019-02-05T12:15:09.757Z,100088.95
2019-02-05T12:18:15.819Z,100090.55
2019-02-05T12:21:21.934Z,100085.16
2019-02-05T12:24:27.747Z,100093.43
2019-02-05T12:27:33.553Z,100090.95
2019-02-05T12:30:44.902Z,100081.34
2019-02-05T12:33:47.159Z,100080.69
2019-02-05T12:36:52.984Z,100080.73
2019-02-05T12:39:58.727Z,100074.21
2019-02-05T12:43:05.291Z,100072.43
2019-02-05T12:46:11.024Z,100070.84
2019-02-05T12:49:16.937Z,100066.59
2019-02-05T12:52:22.760Z,100064.28
2019-02-05T12:55:28.718Z,100052.06
2019-02-05T12:58:34.433Z,100052.86
2019-02-05T13:01:40.265Z,100046.05
2019-02-05T13:04:45.986Z,100048.47
2019-02-05T13:07:51.804Z,100047.70
2019-02-05T13:10:58.016Z,100043.37
2019-02-05T13:14:03.932Z,100041.98
2019-02-05T13:17:09.651Z,100030.44
2019-02-05T13:20:19.554Z,100028.19
2019-02-05T13:23:25.363Z,100029.06
2019-02-05T13:26:31.213Z,100029.16
2019-02-05T13:29:36.915Z,100019.83
2019-02-05T13:32:42.919Z,100014.46
2019-02-05T13:35:48.638Z,100018.85
2019-02-05T13:38:54.383Z,100010.77
2019-02-05T13:42:00.170Z,100007.61
2019-02-05T13:45:07.428Z,100000.89
2019-02-05T13:48:13.173Z,99999.31
2019-02-05T13:51:18.865Z,99998.99
2019-02-05T13:54:24.622Z,100002.92
2019-02-05T13:57:30.373Z,100005.27
2019-02-05T14:00:38.954Z,99997.08
2019-02-05T14:03:46.784Z,99995.03
2019-02-05T14:06:53.097Z,99999.63
2019-02-05T14:09:58.917Z,99991.30
2019-02-05T14:13:05.381Z,99991.84
2019-02-05T14:16:11.327Z,99995.67
2019-02-05T14:19:17.025Z,99996.80
2019-02-05T14:22:22.751Z,99990.92
2019-02-05T14:25:28.648Z,99988.09
2019-02-05T14:28:34.379Z,99992.63
2019-02-05T14:31:40.093Z,99996.30
2019-02-05T14:34:45.809Z,99990.36
2019-02-05T14:37:51.767Z,99993.66
2019-02-05T14:40:57.640Z,99995.60
2019-02-05T14:44:03.890Z,99995.60
2019-02-05T14:47:09.633Z,100001.52
2019-02-05T14:50:19.082Z,99994.27
2019-02-05T14:53:24.934Z,99998.50
2019-02-05T14:56:30.782Z,100001.19
2019-02-05T14:59:36.563Z,99989.92
2019-02-05T15:02:42.280Z,99997.36
2019-02-05T15:05:49.089Z,99997.36
2019-02-05T15:08:54.861Z,99997.70
2019-02-05T15:12:00.638Z,100002.62
2019-02-05T15:15:09.369Z,100006.77
2019-02-05T15:18:17.663Z,100001.72
2019-02-05T15:21:26.020Z,100004.48
2019-02-05T15:24:38.012Z,100001.50
2019-02-05T15:27:40.641Z,100002.62
2019-02-05T15:30:46.442Z,100003.52
2019-02-05T15:33:57.070Z,100011.98
2019-02-05T15:37:02.787Z,100010.34
2019-02-05T15:40:09.936Z,100023.37
2019-02-05T15:43:15.773Z,100019.73
2019-02-05T15:46:23.043Z,100017.00
2019-02-05T15:49:29.240Z,100023.45
2019-02-05T15:52:35.170Z,100023.97
2019-02-05T15:55:41.118Z,100021.09
2019-02-05T15:58:47.043Z,100019.25
2019-02-05T16:01:52.872Z,100015.00
2019-02-05T16:04:58.652Z,100016.11
2019-02-05T16:08:04.929Z,100019.31
2019-02-05T16:11:10.709Z,100012.02
2019-02-05T16:14:16.477Z,100027.28
2019-02-05T16:17:22.457Z,100032.17
2019-02-05T16:20:28.786Z,100039.56
2019-02-05T16:23:40.737Z,100049.30
2019-02-05T16:26:46.584Z,100059.09
2019-02-05T16:29:52.389Z,100064.35
2019-02-05T16:32:58.249Z,100066.58
2019-02-05T16:36:04.317Z,100061.33
2019-02-05T16:39:11.581Z,100056.45
2019-02-05T16:42:17.467Z,100057.55
2019-02-05T16:45:25.370Z,100047.72
2019-02-05T16:48:31.364Z,100044.80
2019-02-05T16:51:37.095Z,100044.34
2019-02-05T16:54:42.924Z,100049.47
2019-02-05T16:57:48.802Z,100047.50
2019-02-05T17:00:54.629Z,100061.55
2019-02-05T17:04:00.355Z,100059.33
2019-02-05T17:07:06.806Z,100056.84
2019-02-05T17:10:13.769Z,100065.08
2019-02-05T17:13:19.973Z,100058.09
2019-02-05T17:16:25.860Z,100052.69
2019-02-05T17:19:31.959Z,100049.46
2019-02-05T17:22:38.808Z,100050.70
2019-02-05T17:25:44.720Z,100047.37
2019-02-05T17:28:50.464Z,100047.47
2019-02-05T17:31:56.755Z,100042.72
2019-02-05T17:35:02.681Z,100047.70
2019-02-05T17:38:10.290Z,100045.03
2019-02-05T17:41:16.189Z,100054.32
2019-02-05T17:44:22.543Z,100048.34
2019-02-05T17:47:28.278Z,100045.14
2019-02-05T17:50:34.222Z,100054.28
2019-02-05T17:53:41.265Z,100068.61
2019-02-05T17:56:47.140Z,100064.88
2019-02-05T17:59:52.897Z,100066.23
2019-02-05T18:02:59.056Z,100064.69
2019-02-05T18:06:05.403Z,100067.66
2019-02-05T18:09:11.430Z,100060.47
2019-02-05T18:12:17.166Z,100054.32
2019-02-05T18:15:25.431Z,100049.00
2019-02-05T18:18:31.145Z,100053.98
2019-02-05T18:21:36.878Z,100058.99
2019-02-05T18:24:42.619Z,100065.41
2019-02-05T18:27:48.786Z,100061.88
2019-02-05T18:30:54.509Z,100065.88
2019-02-05T18:34:00.244Z,100068.89
2019-02-05T18:37:06.106Z,100078.80
2019-02-05T18:40:13.202Z,100079.34
2019-02-05T18:43:18.943Z,100080.73
2019-02-05T18:46:24.677Z,100070.83
2019-02-05T18:49:30.522Z,100072.22
2019-02-05T18:52:36.263Z,100077.03
2019-02-05T18:55:42.512Z,100080.05
2019-02-05T18:58:48.242Z,100078.91
2019-02-05T19:01:53.971Z,100075.94
2019-02-05T19:04:59.799Z,100062.30
2019-02-05T19:08:06.635Z,100065.06
2019-02-05T19:11:12.552Z,100069.51
2019-02-05T19:14:18.389Z,100078.45
2019-02-05T19:17:24.165Z,100065.33
2019-02-05T19:20:31.607Z,100062.24
2019-02-05T19:23:37.484Z,100064.02
2019-02-05T19:26:48.878Z,100062.72
2019-02-05T19:29:54.647Z,100060.58
2019-02-05T19:33:00.449Z,100064.18
2019-02-05T19:36:06.397Z,100053.00
2019-02-05T19:39:12.162Z,100048.89
2019-02-05T19:42:17.909Z,100040.41
2019-02-05T19:45:45.703Z,100045.45
2019-02-05T19:48:55.589Z,100049.09
2019-02-05T19:52:02.605Z,100039.68
2019-02-05T19:55:08.613Z,100045.05
2019-02-05T19:58:14.937Z,100036.30
2019-02-05T20:01:20.681Z,100043.94
2019-02-05T20:04:26.408Z,100053.16
2019-02-05T20:07:32.214Z,100055.23
2019-02-05T20:10:38.056Z,100062.39
2019-02-05T20:13:43.821Z,100063.07
2019-02-05T20:16:49.523Z,100053.09
2019-02-05T20:19:55.273Z,100059.35
2019-02-05T20:23:01.048Z,100065.90
2019-02-05T20:26:06.978Z,100064.63
2019-02-05T20:29:13.168Z,100064.58
2019-02-05T20:32:18.968Z,100058.52
2019-02-05T20:35:24.868Z,100056.55
2019-02-05T20:38:31.143Z,100063.83
2019-02-05T20:41:36.935Z,100057.55
2019-02-05T20:44:42.758Z,100062.92
2019-02-05T20:47:48.626Z,100055.17
2019-02-05T20:50:54.628Z,100054.06
2019-02-05T20:54:00.411Z,100061.15
2019-02-05T20:57:06.284Z,100058.72
2019-02-05T21:00:18.271Z,100054.06
2019-02-05T21:03:24.071Z,100048.12
2019-02-05T21:06:29.918Z,100049.92
2019-02-05T21:09:35.832Z,100043.95
2019-02-05T21:12:41.626Z,100022.47
2019-02-05T21:15:47.613Z,100019.98
2019-02-05T21:18:53.373Z,100020.22
2019-02-05T21:21:59.294Z,100006.34
2019-02-05T21:25:06.406Z,100011.80
2019-02-05T21:28:12.641Z,100013.11
2019-02-05T21:31:18.431Z,100017.52
2019-02-05T21:34:24.206Z,100012.84
2019-02-05T21:37:30.256Z,100008.98
2019-02-05T21:40:36.098Z,100015.20
2019-02-05T21:43:41.969Z,100011.02
2019-02-05T21:46:47.820Z,100015.62
2019-02-05T21:49:53.700Z,100023.61
2019-02-05T21:52:59.678Z,100016.17
2019-02-05T21:56:05.681Z,100011.18
2019-02-05T21:59:11.647Z,100009.05
2019-02-05T22:02:17.423Z,99994.07
2019-02-05T22:05:23.509Z,100001.12
2019-02-05T22:08:29.487Z,99991.44
2019-02-05T22:11:35.244Z,99975.48
2019-02-05T22:14:41.046Z,99979.43
2019-02-05T22:17:47.286Z,99968.25
2019-02-05T22:20:53.092Z,99973.23
2019-02-05T22:23:59.072Z,99985.17
2019-02-05T22:27:07.772Z,100001.66
2019-02-05T22:30:18.005Z,99998.45
2019-02-05T22:33:23.985Z,100004.19
2019-02-05T22:36:30.319Z,99990.59
2019-02-05T22:39:36.171Z,99985.09
2019-02-05T22:42:43.165Z,99975.66
2019-02-05T22:45:49.005Z,99981.66
2019-02-05T22:48:54.839Z,99974.53
2019-02-05T22:52:00.653Z,99975.59
2019-02-05T22:55:07.052Z,99958.59
2019-02-05T22:58:13.022Z,99965.55
2019-02-05T23:01:46.788Z,99947.06
2019-02-05T23:05:42.329Z,99931.32
2019-02-05T23:08:48.211Z,99942.16
2019-02-05T23:12:33.882Z,99926.85
2019-02-05T23:15:42.911Z,99925.16
2019-02-05T23:18:49.096Z,99919.03
2019-02-05T23:21:55.073Z,99918.48
2019-02-05T23:25:00.943Z,99925.72
2019-02-05T23:28:07.471Z,99924.80
2019-02-05T23:31:13.491Z,99929.07
2019-02-05T23:34:19.243Z,99926.83
2019-02-05T23:37:25.059Z,99922.47
2019-02-05T23:40:31.091Z,99911.89
2019-02-05T23:43:37.040Z,99916.09
2019-02-05T23:46:43.580Z,99915.34
2019-02-05T23:49:49.718Z,99907.36
2019-02-05T23:52:55.633Z,99901.64
2019-02-05T23:56:01.393Z,99900.69
2019-02-05T23:59:07.631Z,99908.42
